Aérodrome :
LOGIN :

S'inscrire | Disclaimer

   EN    FR    IT 

 










Légende :    VFR   VFR Marginal   IFR   IFR Intensif   IFR Très Intensif
Visi : 
Plafond : 
>= 8 km
>= 3000ft
5 à 8 km
1000 à 3000 ft
1500m à 5 km
500 à 1000 ft
800 à 1500m
200 à 500 ft
< 800m
< 200 ft
Symboles :   Orages  Brouillard  Fortes neiges  Fortes précipitations  Vent > 20 kt
SIGMETs :   Divers  Orages  Givrage  Turbulence  Onde Orograph.  Cendres Volcan.






- Altitude de l'aérodrome : 1079 ft


ETIK - Illesheim Air Base

DERNIER METAR :
  • 221856Z AUTO 00000KT 9999 CLR 09/09 A3021 RMK AO2 SLP237 T00890089 $

METARs EXPIRÉS :
  • 221756Z AUTO 00000KT 9999 CLR 10/10 A3022 RMK AO2 SLP242 T01000100 10166 20100 53000 $
  • 221656Z AUTO 00000KT 9999 CLR 11/11 A3022 RMK AO2 SLP240 T01120112 $

TAF TAF ETIK
Valide du 22 à 14h jusqu'au 23 à 20h UTC


2214/2320 36006KT 9999 SCT025 QNH3022INS
BECMG 2221/2222 VRB06KT 5000 BR BKN015 QNH3019INS
BECMG 2223/2224 VRB06KT 0600 FG BKN005 QNH3020INS
BECMG 2303/2304 VRB06KT 2400 BR BKN010 QNH3011INS
BECMG 2306/2307 13009KT 9999 NSW FEW020 QNH3008INS TX16/2214Z TN07/2300Z



MET'MAP, la Météo Aéronautique d'un coup d'oeil ! - Copyright ORBIFLY Décembre 2007 - Disclaimer

ORBIFLY MET'MAP TEAM :

Programmation & Développement : Alexandra Zaïnal
Conception & Développement : Baudouin d'Aumeries
Co-Programmation & Développement : Marc-Olivier Méhu
Soutien technique & logistique : Manuel Goepfert

Contact : metmap@orbifly.com




SOURCES & CREDITS :

   NOAA